Latest Conditions
At L.F.Wade Int. Airport
Recorded at 11:06 pm
Rain
Temp.: 
16°C/61°F
Humidity: 
90%
Wind: 
NNE 13KT
or 15mph
Island Observations
 
Observations
Thursday, January 27, 2022

Observations are in local time and taken at least once an hour, or upon the start and end of specified events such as showers and thunderstorms.

Time Sky / Weather Wind Speed/Gusts Temp. R.H. Pressure
     knots (mph)  °C (°F)  %  mb / "Hg
 23:06 Overcast Rain NNE 13/0 (15/0) 16(61) 90 1022 / 30.18
 22:55 Overcast Rain NNE 15/0 (17/0) 16(61) 88 1022 / 30.18
 21:55 Overcast Rain NE 14/0 (16/0) 16(61) 85 1022 / 30.17
 21:12 Overcast Rain NE 14/0 (16/0) 16(61) 88 1021 / 30.16
 20:55 Overcast Rain NE 14/0 (16/0) 16(61) 88 1021 / 30.16
 20:07 Overcast Rain NE 13/0 (15/0) 16(61) 89 1022 / 30.17
 19:55 Overcast Rain NE 13/0 (15/0) 16(61) 89 1022 / 30.17
 19:31 Overcast Rain NNE 14/0 (16/0) 16(61) 88 1022 / 30.17
 19:20 Overcast Rain NE 13/0 (15/0) 16(60) 89 1022 / 30.17
 18:55 Overcast Rain NE 14/0 (16/0) 16(61) 88 1021 / 30.15
 18:32 Overcast Rain NE 13/26 (15/30) 16(61) 89 1021 / 30.15
 18:23 Overcast Rain NE 13/0 (15/0) 16(61) 89 1021 / 30.14
 17:55 Overcast Rain NE 12/0 (14/0) 16(61) 88 1021 / 30.14
 17:16 Overcast Rain ENE 11/0 (13/0) 17(62) 83 1020 / 30.13
 16:55 Overcast  NE 13/0 (15/0) 17(62) 83 1020 / 30.13
 15:55 Overcast  NE 13/0 (15/0) 17(62) 82 1020 / 30.12
 14:55 Overcast Showers NNE 17/0 (20/0) 17(63) 80 1020 / 30.12
 13:55 Mostly Cloudy  NNE 17/0 (20/0) 18(64) 79 1020 / 30.11
 12:55 Mostly Cloudy  NNE 18/0 (21/0) 18(65) 76 1020 / 30.12
 11:55 Mostly Cloudy  NNE 16/0 (18/0) 17(63) 83 1021 / 30.15
 11:40 Mostly Cloudy  N 17/0 (20/0) 17(63) 85 1021 / 30.15
 11:04 Overcast Showers NNE 16/26 (18/30) 17(63) 85 1021 / 30.15
 10:55 Overcast Showers N 17/0 (20/0) 17(63) 86 1021 / 30.15
 10:31 Mostly Cloudy Showers N 15/0 (17/0) 18(64) 84 1021 / 30.15
 09:55 Mostly Cloudy  N 16/0 (18/0) 19(66) 78 1020 / 30.13
 09:28 Mostly Cloudy Showers N 15/0 (17/0) 18(65) 83 1020 / 30.12
 09:09 Mostly Cloudy Showers N 13/0 (15/0) 18(65) 83 1020 / 30.12
 08:55 Mostly Cloudy  NW 10/0 (12/0) 20(67) 78 1020 / 30.11
 07:55 Mostly Cloudy Showers NW 11/0 (13/0) 19(66) 82 1019 / 30.09
 07:13 Mostly Cloudy Showers W 6/0 (7/0) 18(65) 88 1019 / 30.08
 06:55 Mostly Cloudy Showers NW 8/0 (9/0) 18(64) 92 1018 / 30.07
 06:32 Mostly Cloudy Showers NW 12/22 (14/25) 17(63) 93 1018 / 30.07
 06:24 Mostly Cloudy Showers W 11/22 (13/25) 17(63) 93 1018 / 30.07
 06:19 Mostly Cloudy Showers WSW 8/0 (9/0) 18(64) 91 1018 / 30.07
 05:55 Mostly Cloudy Showers W 8/0 (9/0) 19(67) 81 1018 / 30.05
 04:55 Mostly Cloudy  WSW 6/0 (7/0) 19(66) 85 1017 / 30.04
 03:55 Overcast Showers WSW 8/0 (9/0) 19(66) 85 1017 / 30.03
 02:55 Mostly Cloudy Showers W 7/0 (8/0) 19(67) 78 1017 / 30.04
 01:55 Mostly Cloudy  W 5/0 (6/0) 19(66) 81 1017 / 30.04
 00:55 Mostly Cloudy  W 7/0 (8/0) 19(66) 83 1017 / 30.04
 23:55 Mostly Cloudy  WNW 4/0 (5/0) 19(66) 79 1017 / 30.04
 22:55 Mostly Cloudy  W 7/0 (8/0) 19(65) 82 1018 / 30.05
 21:55 Mostly Cloudy Showers WNW 10/0 (12/0) 19(66) 84 1018 / 30.05
 21:47 Mostly Cloudy Showers NW 9/0 (10/0) 19(66) 84 1018 / 30.05
 20:55 Mostly Cloudy  W 6/0 (7/0) 19(67) 67 1018 / 30.05
 19:55 Mostly Cloudy  WNW 7/0 (8/0) 19(67) 67 1017 / 30.04
 18:55 Mostly Cloudy Showers WNW 6/0 (7/0) 20(67) 77 1017 / 30.04
 17:55 Mostly Cloudy  WNW 5/0 (6/0) 20(67) 80 1017 / 30.02
 16:55 Mostly Cloudy  NW 6/0 (7/0) 19(67) 84 1016 / 29.99
 15:55 Mostly Cloudy  NW 8/0 (9/0) 19(67) 88 1016 / 30.00
 14:55 Overcast  NNW 10/0 (12/0) 19(67) 88 1015 / 29.98
 14:11 Overcast  NW 11/0 (13/0) 20(67) 87 1015 / 29.98
 13:55 Overcast Rain NW 12/0 (14/0) 19(66) 90 1015 / 29.98
 13:24 Overcast  WNW 9/0 (10/0) 20(68) 85 1015 / 29.98
 12:55 Mostly Cloudy  WNW 11/0 (13/0) 20(68) 85 1015 / 29.98
 11:55 Mostly Cloudy  WNW 8/0 (9/0) 20(68) 86 1016 / 30.01
 11:18 Mostly Cloudy  NW 11/0 (13/0) 20(67) 85 1016 / 30.01
 11:03 Mostly Cloudy Drizzle WNW 10/0 (12/0) 20(67) 87 1016 / 30.01
 10:55 Mostly Cloudy  WNW 12/0 (14/0) 20(68) 86 1016 / 30.01
 10:36 Mostly Cloudy  WNW 11/0 (13/0) 20(68) 86 1016 / 30.00
 09:55 Mostly Cloudy  WNW 8/0 (9/0) 20(68) 89 1016 / 29.99
 08:55 Overcast  NW 10/0 (12/0) 20(68) 91 1015 / 29.97
 07:55 Mostly Cloudy  WNW 9/0 (10/0) 20(68) 94 1014 / 29.95
 07:06 Overcast Showers W 10/0 (12/0) 20(69) 95 1014 / 29.93
 06:58 Mostly Cloudy Showers WSW 11/0 (13/0) 21(69) 95 1014 / 29.93
 06:55 Mostly Cloudy Showers WSW 10/0 (12/0) 21(69) 94 1013 / 29.92
 05:55 Mostly Cloudy Showers SW 10/0 (12/0) 21(70) 92 1013 / 29.91
 04:55 Mostly Cloudy  SW 9/0 (10/0) 21(70) 94 1013 / 29.90
 03:55 Mostly Cloudy  SSW 8/0 (9/0) 21(70) 92 1012 / 29.89
 02:55 Mostly Cloudy  SSW 8/0 (9/0) 21(70) 89 1013 / 29.91
 01:55 Mostly Cloudy  SSW 9/0 (10/0) 21(70) 94 1014 / 29.93
 00:55 Partly Cloudy  SSW 9/0 (10/0) 21(70) 93 1014 / 29.94
 23:55 Mostly Cloudy  SSW 10/0 (12/0) 21(70) 92 1015 / 29.96
 22:55 Mostly Cloudy  SSW 10/0 (12/0) 21(70) 93 1015 / 29.97
 21:55 Partly Cloudy  S 11/0 (13/0) 21(70) 94 1015 / 29.96
 21:33 Mostly Cloudy  S 10/0 (12/0) 21(70) 94 1015 / 29.96
 20:55 Mostly Cloudy  SSE 11/0 (13/0) 21(70) 93 1015 / 29.96
 19:55 Mostly Cloudy  S 7/0 (8/0) 21(70) 93 1015 / 29.97
 19:32 Mostly Cloudy Showers S 7/0 (8/0) 21(69) 94 1015 / 29.97
 19:18 Overcast Showers S 11/0 (13/0) 21(69) 93 1015 / 29.98
 18:55 Overcast Showers S 10/0 (12/0) 21(70) 90 1015 / 29.97
 17:55 Overcast Showers S 12/0 (14/0) 21(70) 90 1015 / 29.97
 17:45 Mostly Cloudy  SSE 11/0 (13/0) 21(69) 92 1015 / 29.97
 16:55 Overcast Showers SE 12/0 (14/0) 21(70) 90 1015 / 29.96
 16:14 Mostly Cloudy Showers ESE 14/0 (16/0) 21(69) 93 1015 / 29.96
 16:04 Overcast Showers ESE 14/0 (16/0) 21(69) 91 1015 / 29.96
 16:00 Overcast Showers SE 14/0 (16/0) 21(69) 90 1015 / 29.96
 15:55 Overcast Showers ESE 14/0 (16/0) 21(69) 90 1015 / 29.96
 15:36 Overcast  ESE 15/0 (17/0) 21(69) 91 1015 / 29.96
 15:27 Overcast Rain ESE 15/0 (17/0) 21(69) 90 1015 / 29.96
 15:18 Mostly Cloudy  SE 15/0 (17/0) 20(69) 90 1015 / 29.97
 14:55 Overcast Rain ESE 15/0 (17/0) 20(67) 89 1015 / 29.98
 14:37 Overcast Rain SE 13/0 (15/0) 20(68) 90 1015 / 29.98
 14:33 Overcast  SE 13/0 (15/0) 20(67) 91 1016 / 29.99
 14:21 Overcast Drizzle ESE 15/0 (17/0) 20(67) 89 1016 / 29.99
 14:13 Overcast Drizzle ESE 12/0 (14/0) 20(68) 88 1016 / 29.99
 13:55 Overcast Drizzle ESE 15/0 (17/0) 20(68) 85 1016 / 30.00
 13:09 Overcast Drizzle SE 15/0 (17/0) 20(69) 76 1017 / 30.02
 12:55 Overcast Drizzle ESE 12/0 (14/0) 20(68) 77 1017 / 30.03
 12:43 Overcast Rain ESE 12/0 (14/0) 20(69) 73 1017 / 30.03
Island AWOS